Observations for LAMEZIA TERME, Italy (LICA)

LICA 260450Z 07003KT 9999 FEW020 22/21 Q1016
LICA 260350Z 08004KT 8000 SCT015 22/21 Q1016
LICA 260150Z 08004KT 9999 SCT020 22/21 Q1015
LICA 260050Z 06003KT 9999 SCT020 22/20 Q1015
LICA 252350Z 09003KT 9999 FEW020 22/20 Q1015
LICA 252250Z 09002KT 9999 FEW020 22/21 Q1016
LICA 252150Z 02002KT CAVOK 24/22 Q1016  
LICA 252050Z VRB01KT CAVOK 25/22 Q1016  
LICA 251950Z 24004KT CAVOK 26/23 Q1016  
LICA 251850Z 24003KT 220V280 CAVOK 26/22 Q1015  
LICA 251750Z 23004KT 200V260 CAVOK 27/23 Q1015  
LICA 251650Z 26006KT CAVOK 28/23 Q1015  
LICA 251550Z 24007KT 210V270 9999 FEW020 29/24 Q1015
LICA 251450Z 24008KT 210V270 9999 FEW020 30/23 Q1015
LICA 251350Z 25011KT 200V280 9999 FEW020 30/23 Q1015
LICA 251250Z 25012KT 9999 FEW020 30/23 Q1014
LICA 251050Z 25011KT 9999 FEW020TCU 30/23 Q1016 
LICA 250950Z 25009KT 230V290 9999 FEW020 30/23 Q1016
LICA 250750Z 23005KT 190V300 9999 FEW020 28/22 Q1016
LICA 250650Z VRB02KT 9999 FEW020 27/21 Q1016
LICA 250450Z 06005KT 9999 FEW025 21/20 Q1016